Time;durP1;ratioP1;P1;durP2;ratioP2;P2;SDS_P1;SDS_P2;PMS_P1;PMS_P2;Temp;Humidity;BMP_temperature;BMP_pressure;BME280_temperature;BME280_humidity;BME280_pressure;Samples;Min_cycle;Max_cycle;Signal;HPM_P1;HPM_P2
2021/11/02 00:01:35;;;;;;;67.05;43.22;;;3.00;99.90;;;;;;5014085;28;20094;-80
2021/11/02 00:04:02;;;;;;;66.63;42.05;;;2.90;99.90;;;;;;5013360;28;20478;-82
2021/11/02 00:06:27;;;;;;;55.50;38.47;;;3.00;99.90;;;;;;5013985;28;20030;-80
2021/11/02 00:08:53;;;;;;;66.07;40.78;;;2.90;99.90;;;;;;5014135;28;20105;-81
2021/11/02 00:11:19;;;;;;;59.97;42.53;;;2.80;99.90;;;;;;5014163;28;20037;-80
2021/11/02 00:13:47;;;;;;;60.05;40.33;;;2.80;99.90;;;;;;5014092;28;20098;-80
2021/11/02 00:16:16;;;;;;;71.68;44.95;;;2.80;99.90;;;;;;5012703;28;20069;-80
2021/11/02 00:18:51;;;;;;;73.47;42.00;;;2.80;99.90;;;;;;5013703;28;20018;-80
2021/11/02 00:21:17;;;;;;;60.17;41.90;;;2.80;99.90;;;;;;5013974;28;20025;-79
2021/11/02 00:23:43;;;;;;;65.28;43.88;;;2.70;99.90;;;;;;5000342;28;20060;-80
2021/11/02 00:26:12;;;;;;;63.10;41.38;;;2.70;99.90;;;;;;5013843;28;20030;-81
2021/11/02 00:28:38;;;;;;;68.93;42.85;;;2.70;99.90;;;;;;5013597;28;20017;-80
2021/11/02 00:31:04;;;;;;;70.45;44.58;;;2.70;99.90;;;;;;5013704;28;20452;-80
2021/11/02 00:33:30;;;;;;;67.50;43.15;;;2.70;99.90;;;;;;5013888;28;20026;-80
2021/11/02 00:35:57;;;;;;;64.18;44.45;;;2.60;99.90;;;;;;5013390;28;20113;-81
2021/11/02 00:38:23;;;;;;;65.43;44.42;;;2.70;99.90;;;;;;5013517;28;20025;-80
2021/11/02 00:40:49;;;;;;;63.53;42.15;;;2.60;99.90;;;;;;5013896;28;20415;-79
2021/11/02 00:43:15;;;;;;;59.55;40.80;;;2.60;99.90;;;;;;5013446;28;20026;-80
2021/11/02 00:45:41;;;;;;;66.28;41.75;;;2.60;99.90;;;;;;5013506;28;20072;-80
2021/11/02 00:48:11;;;;;;;63.10;43.50;;;2.60;99.90;;;;;;5013322;28;20030;-80
2021/11/02 00:50:43;;;;;;;63.95;40.65;;;2.60;99.90;;;;;;5013192;28;20033;-79
2021/11/02 00:53:09;;;;;;;66.97;42.38;;;2.50;99.90;;;;;;5013394;28;20030;-79
2021/11/02 00:55:35;;;;;;;56.33;41.03;;;2.50;99.90;;;;;;5013115;28;20057;-80
2021/11/02 00:58:05;;;;;;;60.75;40.60;;;2.50;99.90;;;;;;5013256;28;20033;-78
2021/11/02 01:00:32;;;;;;;62.13;39.08;;;2.50;99.90;;;;;;5013677;28;20030;-79
2021/11/02 01:02:58;;;;;;;;;;;2.50;99.90;;;;;;5013868;28;20024;-79
2021/11/02 01:05:24;;;;;;;54.17;37.92;;;2.50;99.90;;;;;;5013353;28;19905;-79
2021/11/02 01:07:50;;;;;;;56.05;38.20;;;2.40;99.90;;;;;;5013297;28;20531;-79
2021/11/02 01:10:16;;;;;;;54.78;39.83;;;2.40;99.90;;;;;;4995593;28;20030;-80
2021/11/02 01:12:47;;;;;;;64.88;41.92;;;2.40;99.90;;;;;;5013344;28;20056;-80
2021/11/02 01:15:24;;;;;;;54.65;37.17;;;2.40;99.90;;;;;;4995507;28;20030;-79
2021/11/02 01:17:50;;;;;;;58.25;38.25;;;2.40;99.90;;;;;;5013577;28;20101;-79
2021/11/02 01:20:17;;;;;;;61.38;40.17;;;2.40;99.90;;;;;;5013131;28;20096;-80
2021/11/02 01:22:44;;;;;;;55.63;38.20;;;2.40;99.90;;;;;;5013090;28;20427;-80
2021/11/02 01:25:12;;;;;;;59.15;38.95;;;2.40;99.90;;;;;;4998823;28;20101;-79
2021/11/02 01:27:40;;;;;;;55.35;39.00;;;2.40;99.90;;;;;;4997333;28;20026;-79
2021/11/02 01:30:07;;;;;;;55.38;36.78;;;2.40;99.90;;;;;;4995712;28;20015;-79
2021/11/02 01:32:33;;;;;;;53.13;37.00;;;2.40;99.90;;;;;;5008930;28;20163;-78
2021/11/02 01:35:00;;;;;;;50.92;37.25;;;2.40;99.90;;;;;;5010949;28;20114;-80
2021/11/02 01:37:33;;;;;;;60.63;38.22;;;2.40;99.90;;;;;;5010896;28;20052;-79
2021/11/02 01:39:59;;;;;;;56.00;38.05;;;2.40;99.90;;;;;;5011924;28;20726;-79
2021/11/02 01:42:29;;;;;;;61.92;40.28;;;2.40;99.90;;;;;;5010522;28;20030;-79
2021/11/02 01:44:56;;;;;;;61.13;39.97;;;2.40;99.90;;;;;;5010517;28;20033;-80
2021/11/02 01:47:23;;;;;;;59.90;39.83;;;2.40;99.90;;;;;;5010082;28;20379;-80
2021/11/02 01:49:49;;;;;;;60.38;42.08;;;2.50;99.90;;;;;;5010518;28;20438;-80
2021/11/02 01:52:15;;;;;;;63.30;41.70;;;2.50;99.90;;;;;;5007292;28;20041;-80
2021/11/02 03:58:19;;;;;;;94.15;55.60;;;2.70;99.90;;;;;;4992038;28;20062;-79
2021/11/02 04:01:55;;;;;;;95.80;55.03;;;2.60;99.90;;;;;;4994635;28;20025;-79
2021/11/02 04:42:48;;;;;;;145.98;66.78;;;2.20;99.90;;;;;;4994113;28;20098;-80
2021/11/02 05:09:27;;;;;;;193.88;82.68;;;2.50;99.90;;;;;;5002619;28;20109;-80
2021/11/02 05:48:05;;;;;;;241.60;100.13;;;3.20;99.90;;;;;;4994921;28;20041;-81
2021/11/02 06:09:22;;;;;;;186.55;92.05;;;3.50;99.40;;;;;;5016640;28;20100;-80
2021/11/02 06:28:33;;;;;;;163.13;82.05;;;3.80;99.00;;;;;;5016128;28;20108;-82
2021/11/02 06:33:41;;;;;;;224.88;91.57;;;3.80;99.10;;;;;;5016299;28;20022;-80
2021/11/02 06:36:15;;;;;;;191.35;87.75;;;3.90;99.00;;;;;;5016117;28;20041;-80
2021/11/02 06:39:15;;;;;;;159.13;78.95;;;3.90;98.80;;;;;;5015905;28;20057;-81
2021/11/02 06:55:19;;;;;;;239.65;96.93;;;4.00;98.50;;;;;;5015657;28;20537;-81
2021/11/02 07:00:54;;;;;;;231.15;92.18;;;4.20;98.30;;;;;;5015654;28;20118;-81
2021/11/02 07:18:04;;;;;;;165.63;85.18;;;4.40;97.70;;;;;;5015105;28;20049;-78
2021/11/02 07:25:28;;;;;;;183.57;88.28;;;4.40;97.00;;;;;;5015477;28;20466;-80
2021/11/02 08:46:36;;;;;;;158.32;83.68;;;5.30;95.60;;;;;;5013781;28;20033;-82
2021/11/02 08:49:04;;;;;;;167.68;88.18;;;5.10;95.60;;;;;;5013170;28;20030;-79
2021/11/02 08:51:30;;;;;;;166.25;88.68;;;4.90;96.10;;;;;;5013490;28;20483;-80
2021/11/02 08:53:56;;;;;;;171.63;92.55;;;5.00;96.50;;;;;;5008694;28;20065;-79
2021/11/02 08:56:22;;;;;;;140.35;84.55;;;5.10;96.30;;;;;;4993726;28;20050;-79
2021/11/02 08:58:51;;;;;;;148.23;79.53;;;5.10;96.10;;;;;;5016102;28;20032;-79
2021/11/02 09:01:18;;;;;;;147.70;82.80;;;5.10;96.10;;;;;;5016965;28;20391;-81
2021/11/02 09:03:51;;;;;;;142.80;82.55;;;5.10;96.10;;;;;;4996228;28;20073;-81
2021/11/02 09:06:23;;;;;;;154.55;85.85;;;5.00;96.20;;;;;;5013238;28;20403;-80
2021/11/02 09:08:54;;;;;;;153.45;82.93;;;5.00;96.40;;;;;;4995751;28;20467;-79
2021/11/02 09:11:21;;;;;;;147.98;85.25;;;5.10;96.30;;;;;;5013142;28;20018;-79
2021/11/02 09:13:53;;;;;;;147.90;82.40;;;5.20;96.30;;;;;;4995251;28;20023;-79
2021/11/02 09:16:21;;;;;;;139.07;80.93;;;5.40;96.20;;;;;;4993503;28;20114;-77
2021/11/02 09:18:50;;;;;;;125.90;74.93;;;5.50;96.20;;;;;;4994083;28;20026;-79
2021/11/02 09:21:17;;;;;;;133.02;80.93;;;5.60;95.90;;;;;;4976154;28;20029;-78
2021/11/02 09:23:44;;;;;;;;;;;5.80;95.90;;;;;;4999788;28;20057;-78
2021/11/02 09:26:10;;;;;;;142.93;76.28;;;6.00;95.90;;;;;;5013136;28;20246;-81
2021/11/02 09:28:36;;;;;;;124.28;74.13;;;6.00;95.20;;;;;;5013070;28;20102;-80
2021/11/02 09:31:05;;;;;;;130.32;75.18;;;6.10;95.40;;;;;;5012939;28;20105;-79
2021/11/02 09:33:32;;;;;;;130.77;75.47;;;6.20;95.00;;;;;;5012415;28;20032;-81
2021/11/02 09:36:01;;;;;;;131.30;76.85;;;6.30;94.80;;;;;;5011721;28;20025;-79
2021/11/02 09:38:37;;;;;;;124.38;77.72;;;6.40;94.40;;;;;;4994683;28;20038;-80
2021/11/02 09:41:28;;;;;;;132.57;74.00;;;6.50;94.00;;;;;;5013099;28;20411;-79
2021/11/02 09:44:02;;;;;;;124.93;70.88;;;6.50;93.60;;;;;;5012398;28;20585;-80
2021/11/02 09:46:56;;;;;;;128.10;75.07;;;6.50;93.50;;;;;;5012442;28;20491;-80
2021/11/02 09:49:43;;;;;;;134.50;78.68;;;6.40;93.60;;;;;;5012702;28;20360;-80
2021/11/02 09:52:42;;;;;;;165.75;95.15;;;6.30;93.40;;;;;;5012516;28;20066;-77
2021/11/02 09:56:02;;;;;;;165.95;89.53;;;6.20;93.30;;;;;;4997002;28;20097;-79
2021/11/02 09:59:04;;;;;;;171.80;91.45;;;5.90;93.60;;;;;;4968238;28;20445;-78
2021/11/02 10:01:49;;;;;;;150.63;86.43;;;5.80;93.90;;;;;;4971208;28;20023;-79
2021/11/02 10:04:34;;;;;;;146.77;77.43;;;5.60;93.90;;;;;;4955340;28;20023;-78
2021/11/02 10:07:39;;;;;;;137.07;75.45;;;5.40;94.00;;;;;;4971966;28;20511;-80
2021/11/02 10:10:14;;;;;;;143.02;84.63;;;5.30;94.30;;;;;;4970227;28;20130;-80
2021/11/02 10:13:05;;;;;;;147.35;79.30;;;5.20;94.70;;;;;;4971707;28;20117;-79
2021/11/02 10:15:51;;;;;;;129.30;68.60;;;5.00;94.70;;;;;;4971211;28;20058;-78
2021/11/02 10:18:47;;;;;;;137.90;76.40;;;5.00;95.00;;;;;;4971448;28;20043;-81
2021/11/02 10:21:30;;;;;;;135.18;74.55;;;5.00;95.00;;;;;;4971618;28;20058;-79
2021/11/02 10:24:18;;;;;;;152.48;78.10;;;5.10;95.20;;;;;;4970906;28;20062;-79
2021/11/02 10:27:21;;;;;;;135.20;77.97;;;5.00;94.80;;;;;;4971357;28;20101;-80
2021/11/02 10:30:13;;;;;;;146.35;78.90;;;5.00;94.70;;;;;;4970766;28;20110;-81
2021/11/02 10:32:41;;;;;;;133.63;68.35;;;4.90;95.00;;;;;;5000139;28;20049;-80
2021/11/02 10:35:42;;;;;;;157.60;93.13;;;4.90;95.20;;;;;;5012602;28;20022;-82
2021/11/02 10:38:25;;;;;;;128.68;74.28;;;5.00;95.20;;;;;;5006872;28;20069;-81
2021/11/02 10:40:58;;;;;;;139.80;76.57;;;4.80;95.00;;;;;;5012408;28;20022;-79
2021/11/02 10:43:38;;;;;;;152.02;83.47;;;4.70;95.20;;;;;;4993029;28;20372;-80
2021/11/02 10:46:09;;;;;;;155.90;81.80;;;4.50;95.50;;;;;;4994985;28;20537;-79
2021/11/02 10:48:37;;;;;;;149.93;72.43;;;4.50;96.00;;;;;;5016019;28;20029;-81
2021/11/02 10:51:06;;;;;;;145.93;82.18;;;4.70;96.20;;;;;;5016002;28;20097;-86
2021/11/02 10:53:37;;;;;;;134.13;74.53;;;4.80;96.00;;;;;;5013801;28;20352;-80
2021/11/02 10:56:29;;;;;;;138.52;75.05;;;4.90;95.90;;;;;;4995756;28;20109;-78
2021/11/02 10:58:59;;;;;;;137.40;74.78;;;5.10;95.90;;;;;;5003230;28;20030;-80
2021/11/02 11:01:28;;;;;;;129.18;70.30;;;5.30;95.70;;;;;;4996204;28;20034;-80
2021/11/02 11:03:59;;;;;;;118.38;70.28;;;5.40;95.50;;;;;;4996689;28;20117;-79
2021/11/02 11:06:29;;;;;;;125.22;71.75;;;5.50;95.20;;;;;;4997294;28;20026;-78
2021/11/02 11:08:58;;;;;;;123.03;74.40;;;5.60;94.70;;;;;;4996849;28;20018;-80
2021/11/02 11:11:30;;;;;;;123.47;70.97;;;5.60;94.40;;;;;;4995387;28;20431;-79
2021/11/02 11:14:11;;;;;;;129.18;75.28;;;5.60;94.20;;;;;;4994801;28;20022;-80
2021/11/02 11:16:45;;;;;;;110.05;65.40;;;5.40;94.10;;;;;;4994081;28;20035;-78
2021/11/02 11:19:27;;;;;;;118.55;68.63;;;5.10;94.30;;;;;;4994712;28;20022;-77
2021/11/02 11:21:56;;;;;;;113.68;62.60;;;5.00;95.10;;;;;;5008172;28;20045;-79
2021/11/02 11:24:42;;;;;;;124.35;74.95;;;4.90;95.00;;;;;;5010860;28;20100;-78
2021/11/02 11:27:09;;;;;;;130.00;72.20;;;4.80;95.60;;;;;;4978358;28;20487;-79
2021/11/02 11:29:44;;;;;;;121.40;70.13;;;4.70;95.60;;;;;;4995946;28;20032;-80
2021/11/02 11:32:11;;;;;;;125.43;72.88;;;4.80;95.80;;;;;;4994740;28;20034;-79
2021/11/02 11:34:42;;;;;;;121.97;71.75;;;4.90;95.90;;;;;;4994750;28;20033;-79
2021/11/02 11:37:10;;;;;;;125.80;74.15;;;5.00;95.50;;;;;;4994370;28;20034;-77
2021/11/02 11:39:37;;;;;;;133.30;76.07;;;4.90;95.50;;;;;;4994780;28;20023;-80
2021/11/02 11:42:04;;;;;;;124.65;73.63;;;4.90;95.70;;;;;;5008637;28;20430;-78
2021/11/02 11:44:31;;;;;;;138.07;80.53;;;4.90;95.70;;;;;;5011481;28;20026;-79
2021/11/02 11:47:24;;;;;;;113.07;66.00;;;5.00;95.80;;;;;;5013939;28;20827;-76
2021/11/02 11:49:51;;;;;;;120.70;67.72;;;5.00;95.90;;;;;;4998875;28;20500;-76
2021/11/02 11:52:25;;;;;;;121.32;65.85;;;5.10;96.00;;;;;;5014269;28;20064;-80
2021/11/02 11:54:53;;;;;;;125.15;70.55;;;5.10;95.70;;;;;;5001540;28;20050;-76
2021/11/02 11:57:34;;;;;;;119.60;66.82;;;5.10;95.50;;;;;;5000418;28;20041;-80
2021/11/02 12:00:19;;;;;;;125.47;66.45;;;5.10;95.80;;;;;;5013445;28;20026;-80
2021/11/02 12:03:05;;;;;;;111.78;56.47;;;5.10;95.90;;;;;;5014538;28;20026;-80
2021/11/02 12:05:32;;;;;;;122.10;65.10;;;5.10;95.40;;;;;;5014162;28;20468;-79
2021/11/02 12:08:22;;;;;;;131.77;72.60;;;4.90;95.70;;;;;;5013966;28;20418;-82
2021/11/02 12:10:52;;;;;;;117.57;60.95;;;4.80;96.20;;;;;;4996498;28;20026;-78
2021/11/02 12:13:19;;;;;;;133.20;68.00;;;4.70;96.60;;;;;;5013990;28;20033;-78
2021/11/02 12:15:59;;;;;;;108.80;57.47;;;4.70;96.90;;;;;;5013961;28;20081;-76
2021/11/02 12:18:28;;;;;;;117.47;67.53;;;4.70;97.00;;;;;;5014006;28;20034;-78
2021/11/02 12:20:55;;;;;;;121.38;65.80;;;4.70;96.90;;;;;;5013933;28;20073;-78
2021/11/02 12:23:41;;;;;;;117.72;63.55;;;4.50;96.90;;;;;;5013452;28;20064;-78
2021/11/02 12:26:09;;;;;;;121.18;64.82;;;4.50;97.40;;;;;;4996135;28;20549;-77
2021/11/02 12:28:43;;;;;;;125.35;65.47;;;4.50;97.40;;;;;;5013918;28;20022;-79
2021/11/02 12:31:12;;;;;;;104.00;61.00;;;4.60;97.60;;;;;;4996162;28;20026;-79
2021/11/02 12:33:52;;;;;;;115.60;64.15;;;4.80;97.70;;;;;;5013839;28;20029;-80
2021/11/02 12:36:26;;;;;;;110.90;64.95;;;4.80;97.40;;;;;;5013632;28;20076;-79
2021/11/02 12:39:04;;;;;;;108.75;61.70;;;4.90;97.20;;;;;;5013670;28;20033;-80
2021/11/02 12:41:30;;;;;;;104.95;59.53;;;5.00;97.00;;;;;;5013921;28;20030;-79
2021/11/02 12:44:09;;;;;;;108.82;60.67;;;5.00;96.90;;;;;;5013714;28;20104;-81
2021/11/02 12:46:38;;;;;;;103.53;58.80;;;5.00;96.90;;;;;;4996127;28;20559;-79
2021/11/02 12:49:07;;;;;;;107.47;61.20;;;5.00;97.20;;;;;;5008549;28;20022;-80
2021/11/02 12:51:39;;;;;;;110.90;61.63;;;5.00;96.60;;;;;;5013954;28;20025;-80
2021/11/02 12:54:10;;;;;;;134.15;71.40;;;4.90;96.80;;;;;;5014161;28;20018;-82
2021/11/02 12:56:40;;;;;;;118.63;62.60;;;4.80;96.80;;;;;;5025942;28;20121;-79
2021/11/02 12:59:17;;;;;;;122.20;70.32;;;4.70;96.90;;;;;;5025178;28;20081;-78
2021/11/02 13:01:44;;;;;;;126.60;62.88;;;4.60;97.00;;;;;;5013146;28;20018;-79
2021/11/02 13:04:12;;;;;;;113.65;64.47;;;4.50;97.20;;;;;;5013396;28;20093;-81
2021/11/02 13:06:58;;;;;;;113.90;65.88;;;4.40;97.60;;;;;;5013296;28;20090;-80
2021/11/02 13:09:33;;;;;;;117.43;65.03;;;4.40;97.80;;;;;;5015298;28;20026;-79
2021/11/02 13:12:10;;;;;;;130.68;67.75;;;4.30;98.00;;;;;;5008932;28;20053;-80
2021/11/02 13:14:40;;;;;;;118.07;64.70;;;4.30;98.30;;;;;;4997022;28;20041;-79
2021/11/02 13:17:08;;;;;;;122.57;68.32;;;4.30;98.60;;;;;;4996234;28;20034;-83
2021/11/02 13:19:36;;;;;;;122.25;60.47;;;4.40;98.60;;;;;;5013010;28;20022;-79
2021/11/02 13:22:15;;;;;;;117.72;62.58;;;4.30;98.40;;;;;;4994802;28;20073;-79
2021/11/02 13:24:55;;;;;;;110.68;67.82;;;4.30;98.70;;;;;;4993520;28;20070;-80
2021/11/02 13:27:35;;;;;;;111.53;63.65;;;4.20;98.60;;;;;;4993738;28;20026;-81
2021/11/02 13:30:34;;;;;;;119.95;61.00;;;4.20;98.80;;;;;;4993422;28;20022;-81
2021/11/02 13:33:12;;;;;;;105.82;55.83;;;4.30;98.80;;;;;;4993571;28;20033;-79
2021/11/02 13:35:44;;;;;;;114.68;62.90;;;4.20;98.60;;;;;;4993541;28;20026;-78
2021/11/02 13:38:23;;;;;;;105.82;55.35;;;4.20;98.80;;;;;;4992960;28;20034;-80
2021/11/02 13:40:50;;;;;;;112.75;67.10;;;4.30;99.00;;;;;;4992778;28;20105;-80
2021/11/02 13:43:40;;;;;;;126.20;72.43;;;4.30;98.80;;;;;;4992362;28;20030;-80
2021/11/02 13:46:11;;;;;;;116.88;58.80;;;4.20;98.90;;;;;;4990482;28;20069;-80
2021/11/02 13:48:41;;;;;;;113.38;58.20;;;4.20;98.90;;;;;;4993078;28;20110;-79
2021/11/02 13:51:09;;;;;;;112.03;61.70;;;4.20;99.10;;;;;;4992979;28;20090;-81
2021/11/02 13:53:35;;;;;;;132.00;69.68;;;4.20;98.90;;;;;;4993062;28;20023;-79
2021/11/02 13:56:23;;;;;;;96.30;58.80;;;4.20;98.90;;;;;;4992282;28;20050;-78
2021/11/02 13:58:50;;;;;;;113.18;64.03;;;4.20;99.00;;;;;;4992407;28;20137;-77
2021/11/02 14:01:28;;;;;;;106.47;58.60;;;4.10;99.00;;;;;;4993122;28;20037;-79
2021/11/02 14:04:21;;;;;;;109.88;59.08;;;4.10;99.10;;;;;;4993490;28;20498;-78
2021/11/02 14:06:53;;;;;;;118.00;63.28;;;4.10;99.10;;;;;;4976428;28;20109;-80
2021/11/02 14:09:26;;;;;;;124.20;68.68;;;4.10;99.30;;;;;;4993485;28;20018;-81
2021/11/02 14:11:52;;;;;;;118.57;60.78;;;4.20;99.30;;;;;;4993399;28;20026;-80
2021/11/02 14:14:32;;;;;;;121.82;63.60;;;4.20;99.20;;;;;;4993027;28;20018;-80
2021/11/02 14:17:19;;;;;;;121.10;60.38;;;4.10;99.10;;;;;;4995169;28;20073;-81
2021/11/02 14:19:49;;;;;;;107.97;58.25;;;4.10;99.20;;;;;;4992403;28;20077;-82
2021/11/02 14:22:49;;;;;;;119.03;64.70;;;4.20;99.60;;;;;;4995275;28;20027;-79
2021/11/02 14:25:30;;;;;;;101.18;55.45;;;4.20;99.30;;;;;;4996501;28;20471;-79
2021/11/02 14:27:56;;;;;;;112.57;60.63;;;4.20;99.40;;;;;;4996631;28;20464;-78
2021/11/02 14:30:23;;;;;;;112.03;59.97;;;4.20;99.40;;;;;;4979740;28;20033;-78
2021/11/02 14:32:50;;;;;;;109.95;61.78;;;4.20;99.30;;;;;;4996897;28;20033;-78
2021/11/02 14:35:35;;;;;;;;;;;4.20;99.20;;;;;;4996869;28;20125;-78
2021/11/02 14:38:08;;;;;;;121.13;62.67;;;4.20;99.30;;;;;;4996537;28;19921;-80
2021/11/02 14:40:37;;;;;;;111.05;53.92;;;4.20;99.20;;;;;;4996319;28;20029;-81
2021/11/02 14:43:15;;;;;;;109.05;59.85;;;4.10;99.30;;;;;;4996597;28;20062;-79
2021/11/02 14:45:49;;;;;;;111.68;59.95;;;4.20;99.60;;;;;;4996525;28;20018;-79
2021/11/02 14:48:49;;;;;;;116.55;60.72;;;4.20;99.60;;;;;;4996333;28;20050;-80
2021/11/02 14:51:21;;;;;;;119.82;69.07;;;4.30;99.60;;;;;;4974759;28;20035;-80
2021/11/02 14:53:47;;;;;;;112.40;61.33;;;4.30;99.40;;;;;;4996119;28;20026;-79
2021/11/02 14:56:27;;;;;;;107.15;55.70;;;4.20;99.30;;;;;;4995913;28;20454;-81
2021/11/02 14:58:55;;;;;;;112.13;59.20;;;4.10;99.40;;;;;;4996125;28;20030;-80
2021/11/02 15:01:33;;;;;;;99.72;54.03;;;4.10;99.50;;;;;;4995988;28;20109;-80
2021/11/02 15:04:10;;;;;;;103.40;50.58;;;4.10;99.60;;;;;;4996267;28;20411;-80
2021/11/02 15:06:39;;;;;;;112.90;53.88;;;4.00;99.50;;;;;;4995861;28;20030;-81
2021/11/02 15:09:10;;;;;;;112.55;62.30;;;4.00;99.70;;;;;;4996042;28;20510;-81
2021/11/02 15:11:38;;;;;;;111.57;63.92;;;4.00;99.90;;;;;;4995702;28;20105;-80
2021/11/02 15:14:09;;;;;;;106.82;53.38;;;3.90;99.70;;;;;;4996118;28;20029;-81
2021/11/02 15:17:01;;;;;;;116.88;58.28;;;3.90;99.90;;;;;;5010347;28;20077;-81
2021/11/02 15:19:29;;;;;;;106.05;55.92;;;3.80;99.90;;;;;;5015396;28;20030;-81
2021/11/02 15:21:58;;;;;;;127.30;67.43;;;3.80;99.90;;;;;;5015798;28;20018;-84
2021/11/02 15:24:31;;;;;;;114.28;61.72;;;3.70;99.90;;;;;;5015533;28;20037;-80
2021/11/02 15:27:06;;;;;;;114.03;58.40;;;3.70;99.90;;;;;;5015143;28;20379;-82
2021/11/02 15:29:52;;;;;;;123.00;63.70;;;3.70;99.90;;;;;;5014881;28;20021;-81
2021/11/02 15:32:23;;;;;;;117.95;61.17;;;3.70;99.90;;;;;;5008389;28;20022;-79
2021/11/02 15:34:51;;;;;;;111.03;59.92;;;3.70;99.90;;;;;;4995406;28;20074;-79
2021/11/02 15:37:21;;;;;;;;;;;3.70;99.90;;;;;;4995514;28;20034;-79
2021/11/02 15:39:53;;;;;;;119.45;59.22;;;3.70;99.90;;;;;;4996783;28;19910;-79
2021/11/02 15:42:22;;;;;;;108.60;54.85;;;3.70;99.90;;;;;;4996159;28;20030;-78
2021/11/02 15:44:50;;;;;;;117.78;63.08;;;3.70;99.90;;;;;;4995725;28;20357;-80
2021/11/02 15:47:19;;;;;;;110.13;60.50;;;3.70;99.90;;;;;;4998683;28;20018;-80
2021/11/02 15:50:05;;;;;;;114.63;62.58;;;3.80;99.90;;;;;;4989303;28;20557;-78
2021/11/02 15:52:33;;;;;;;102.88;56.70;;;3.70;99.90;;;;;;5007490;28;20029;-77
2021/11/02 15:55:30;;;;;;;94.43;53.25;;;3.60;99.90;;;;;;4998316;28;20030;-77
2021/11/02 15:57:58;;;;;;;104.25;53.53;;;3.60;99.90;;;;;;4993178;28;20074;-78
2021/11/02 16:00:29;;;;;;;99.88;54.53;;;3.60;99.90;;;;;;4994879;28;20030;-79
2021/11/02 16:02:55;;;;;;;102.78;54.42;;;3.60;99.90;;;;;;4994960;28;20080;-80
2021/11/02 16:05:24;;;;;;;92.40;51.88;;;3.70;99.90;;;;;;4994663;28;20101;-81
2021/11/02 16:07:53;;;;;;;104.68;57.85;;;3.70;99.90;;;;;;4994969;28;20502;-79
2021/11/02 16:10:27;;;;;;;91.47;53.80;;;3.80;99.90;;;;;;4994785;28;20034;-79
2021/11/02 16:12:53;;;;;;;89.95;50.50;;;3.80;99.90;;;;;;4994592;28;20022;-79
2021/11/02 16:15:28;;;;;;;86.90;51.45;;;3.80;99.90;;;;;;4990232;28;20387;-79
2021/11/02 16:18:17;;;;;;;101.18;51.60;;;3.80;99.90;;;;;;5013511;28;20037;-80
2021/11/02 16:20:45;;;;;;;90.97;53.17;;;3.90;99.90;;;;;;5003575;28;20024;-80
2021/11/02 16:23:16;;;;;;;80.00;49.63;;;4.00;99.90;;;;;;5013863;28;20022;-80
2021/11/02 16:25:45;;;;;;;85.85;49.95;;;4.10;99.90;;;;;;5013490;28;20022;-79
2021/11/02 16:28:21;;;;;;;83.25;46.58;;;4.10;99.90;;;;;;5013875;28;20026;-78
2021/11/02 16:30:51;;;;;;;76.80;47.03;;;4.20;99.90;;;;;;5013349;28;20026;-78
2021/11/02 16:33:21;;;;;;;69.00;41.35;;;4.10;99.70;;;;;;5013706;28;20484;-78
2021/11/02 16:35:54;;;;;;;62.95;40.60;;;4.20;99.60;;;;;;5012686;28;20022;-79
2021/11/02 16:38:20;;;;;;;69.15;40.75;;;4.20;99.40;;;;;;5013152;28;20034;-80
2021/11/02 16:40:50;;;;;;;70.53;42.45;;;4.10;99.30;;;;;;5013652;28;20029;-80
2021/11/02 16:43:26;;;;;;;70.70;43.25;;;4.20;99.40;;;;;;5013572;28;20380;-79
2021/11/02 16:45:53;;;;;;;80.30;45.45;;;4.20;99.30;;;;;;5012917;28;20026;-78
2021/11/02 16:48:19;;;;;;;72.97;41.90;;;4.20;99.10;;;;;;5013316;28;20029;-78
2021/11/02 16:50:53;;;;;;;76.28;43.50;;;4.30;99.00;;;;;;5014128;28;20026;-79
2021/11/02 16:53:25;;;;;;;69.28;40.88;;;4.30;98.90;;;;;;5013519;28;20034;-79
2021/11/02 16:55:52;;;;;;;71.80;42.33;;;4.30;98.90;;;;;;5013054;28;20038;-78
2021/11/02 16:58:18;;;;;;;74.03;44.43;;;4.30;98.60;;;;;;5012939;28;20037;-77
2021/11/02 17:00:44;;;;;;;68.63;41.72;;;4.20;98.50;;;;;;5013300;28;20755;-80
2021/11/02 17:03:13;;;;;;;66.93;40.10;;;4.20;98.50;;;;;;5013082;28;20394;-79
2021/11/02 17:05:40;;;;;;;65.28;39.22;;;4.20;98.50;;;;;;5012815;28;20101;-80
2021/11/02 17:08:14;;;;;;;71.97;39.65;;;4.10;98.40;;;;;;5012913;28;20390;-79
2021/11/02 17:10:49;;;;;;;73.20;43.45;;;4.00;98.30;;;;;;5012869;28;20025;-79
2021/11/02 17:13:27;;;;;;;69.72;40.33;;;3.90;98.60;;;;;;4996372;28;20076;-77
2021/11/02 17:16:14;;;;;;;78.15;42.75;;;3.90;98.70;;;;;;5013010;28;20033;-78
2021/11/02 17:18:52;;;;;;;71.18;40.25;;;3.90;98.80;;;;;;5012779;28;20062;-77
2021/11/02 17:21:20;;;;;;;66.53;38.88;;;3.80;98.90;;;;;;5013020;28;20025;-77
2021/11/02 17:23:46;;;;;;;57.00;33.40;;;3.80;98.90;;;;;;5012888;28;20033;-77
2021/11/02 17:26:14;;;;;;;76.45;40.63;;;3.80;98.80;;;;;;5011811;28;20018;-78
2021/11/02 17:28:46;;;;;;;74.95;40.45;;;3.70;98.90;;;;;;5013120;28;20026;-78
2021/11/02 17:31:13;;;;;;;64.55;37.53;;;3.70;98.90;;;;;;5012787;28;20057;-77
2021/11/02 17:33:40;;;;;;;75.70;40.00;;;3.70;99.00;;;;;;5012898;28;20033;-78
2021/11/02 17:36:10;;;;;;;79.22;46.15;;;3.60;99.20;;;;;;5013688;28;20092;-78
2021/11/02 17:38:37;;;;;;;73.43;39.13;;;3.70;99.10;;;;;;4995061;28;20037;-77
2021/11/02 17:41:04;;;;;;;;;;;3.60;99.10;;;;;;5011766;28;20064;-77
2021/11/02 17:43:31;;;;;;;59.40;37.30;;;3.60;99.10;;;;;;5012666;28;19967;-77
2021/11/02 17:45:57;;;;;;;62.88;34.03;;;3.60;99.30;;;;;;5012697;28;20475;-76
2021/11/02 17:48:24;;;;;;;62.60;36.90;;;3.70;99.30;;;;;;5011522;28;20026;-78
2021/11/02 17:50:50;;;;;;;65.97;34.40;;;3.60;99.10;;;;;;5012933;28;20368;-77
2021/11/02 17:53:17;;;;;;;69.82;37.85;;;3.50;99.30;;;;;;5012928;28;20022;-79
2021/11/02 17:55:44;;;;;;;58.70;34.63;;;3.50;99.40;;;;;;5012434;28;20046;-77
2021/11/02 17:58:10;;;;;;;65.53;38.70;;;3.50;99.60;;;;;;5016397;28;20382;-79
2021/11/02 18:00:37;;;;;;;62.55;37.30;;;3.60;99.70;;;;;;5016684;28;20030;-79
2021/11/02 18:03:06;;;;;;;62.42;36.63;;;3.60;99.60;;;;;;5016203;28;20484;-77
2021/11/02 18:05:32;;;;;;;62.47;39.80;;;3.70;99.70;;;;;;5016701;28;20030;-76
2021/11/02 18:08:02;;;;;;;57.67;35.17;;;3.70;99.50;;;;;;4998795;28;20692;-79
2021/11/02 18:10:29;;;;;;;61.45;36.40;;;3.70;99.40;;;;;;5015334;28;20026;-80
2021/11/02 18:12:55;;;;;;;59.85;35.90;;;3.70;99.60;;;;;;5016134;28;20026;-77
2021/11/02 18:15:22;;;;;;;68.32;38.95;;;3.80;99.60;;;;;;5016311;28;20030;-77
2021/11/02 18:17:49;;;;;;;60.33;36.13;;;3.90;99.60;;;;;;5016071;28;20034;-78
2021/11/02 18:20:17;;;;;;;61.90;36.42;;;4.00;99.40;;;;;;5015786;28;20045;-78
2021/11/02 18:22:45;;;;;;;58.58;34.00;;;4.00;99.30;;;;;;5015111;28;20032;-81
2021/11/02 18:25:15;;;;;;;61.20;35.30;;;4.00;99.10;;;;;;5016209;28;20069;-81
2021/11/02 18:27:42;;;;;;;63.85;35.92;;;4.00;99.00;;;;;;5015958;28;20034;-83
2021/11/02 18:30:08;;;;;;;57.80;35.97;;;4.00;98.90;;;;;;5015965;28;20053;-80
2021/11/02 18:32:35;;;;;;;57.13;34.50;;;4.00;99.00;;;;;;5016388;28;20026;-79
2021/11/02 18:35:01;;;;;;;56.75;34.80;;;4.10;98.90;;;;;;5013805;28;20018;-78
2021/11/02 18:37:27;;;;;;;56.83;34.45;;;4.00;98.80;;;;;;5014247;28;20141;-80
2021/11/02 18:39:55;;;;;;;52.85;32.53;;;4.10;98.70;;;;;;5016112;28;20113;-82
2021/11/02 18:42:21;;;;;;;54.00;34.00;;;4.10;98.60;;;;;;5015780;28;20423;-79
2021/11/02 18:44:47;;;;;;;53.17;34.45;;;4.10;98.70;;;;;;5015682;28;20096;-80
2021/11/02 18:47:15;;;;;;;55.05;35.15;;;4.10;98.80;;;;;;5016088;28;20041;-79
2021/11/02 18:49:47;;;;;;;63.50;34.75;;;4.20;98.80;;;;;;5015633;28;20022;-79
2021/11/02 18:52:14;;;;;;;56.97;32.40;;;4.20;98.60;;;;;;5015942;28;20017;-80
2021/11/02 18:54:41;;;;;;;57.85;34.13;;;4.20;98.40;;;;;;5014919;28;20022;-79
2021/11/02 18:57:07;;;;;;;59.20;34.17;;;4.20;98.40;;;;;;5015440;28;20440;-81
2021/11/02 18:59:34;;;;;;;56.88;35.20;;;4.20;98.40;;;;;;4997785;28;20029;-83
2021/11/02 19:02:00;;;;;;;55.58;36.78;;;4.30;98.70;;;;;;5015919;28;20026;-83
2021/11/02 19:04:26;;;;;;;63.80;38.00;;;4.30;98.20;;;;;;5016741;28;20374;-82
2021/11/02 19:06:52;;;;;;;56.65;34.05;;;4.20;98.10;;;;;;5017730;28;20026;-83
2021/11/02 19:09:17;;;;;;;59.03;34.60;;;4.20;98.20;;;;;;4999760;28;20028;-84
2021/11/02 19:11:43;;;;;;;58.67;35.50;;;4.20;98.00;;;;;;5012343;28;20165;-77
2021/11/02 19:14:12;;;;;;;56.40;35.15;;;4.10;98.00;;;;;;5015037;28;20386;-77
2021/11/02 19:16:40;;;;;;;58.05;33.10;;;4.20;98.20;;;;;;5014775;28;20030;-77